Time;durP1;ratioP1;P1;durP2;ratioP2;P2;SDS_P1;SDS_P2;PMS_P1;PMS_P2;Temp;Humidity;BMP_temperature;BMP_pressure;BME280_temperature;BME280_humidity;BME280_pressure;Samples;Min_cycle;Max_cycle;Signal;HPM_P1;HPM_P2
2022/11/09 00:00:43;;;;;;;3.97;3.58;;;13.40;99.90;;;;;;4939790;28;89158;-32
2022/11/09 00:03:09;;;;;;;4.65;3.53;;;13.30;99.90;;;;;;4940738;28;90539;-31
2022/11/09 00:05:35;;;;;;;5.47;2.90;;;13.30;99.90;;;;;;4940388;28;89615;-30
2022/11/09 00:08:03;;;;;;;3.38;3.00;;;13.20;99.90;;;;;;4940019;28;90126;-33
2022/11/09 00:10:29;;;;;;;8.65;3.97;;;13.20;99.90;;;;;;4941474;28;88856;-30
2022/11/09 00:12:54;;;;;;;5.70;3.10;;;13.20;99.90;;;;;;4939163;28;90256;-30
2022/11/09 00:15:20;;;;;;;8.18;3.45;;;13.20;99.90;;;;;;4940596;28;90014;-33
2022/11/09 00:17:45;;;;;;;5.93;3.47;;;13.20;99.90;;;;;;4939686;28;89857;-32
2022/11/09 00:20:11;;;;;;;7.03;4.18;;;13.00;99.90;;;;;;4941128;28;87763;-30
2022/11/09 00:22:37;;;;;;;3.53;2.95;;;13.00;99.90;;;;;;4940328;28;89705;-33
2022/11/09 00:25:03;;;;;;;7.57;4.38;;;13.00;99.90;;;;;;4939168;28;89932;-32
2022/11/09 00:27:28;;;;;;;6.60;3.53;;;12.90;99.90;;;;;;4940066;28;90730;-31
2022/11/09 00:29:54;;;;;;;6.03;3.55;;;12.90;99.90;;;;;;4939733;28;89764;-31
2022/11/09 00:32:19;;;;;;;4.68;3.58;;;13.00;99.90;;;;;;4940021;28;90314;-31
2022/11/09 00:34:45;;;;;;;3.33;3.00;;;12.90;99.90;;;;;;4938997;28;89575;-32
2022/11/09 00:37:11;;;;;;;5.18;3.92;;;12.90;99.90;;;;;;4940147;28;89960;-31
2022/11/09 00:39:36;;;;;;;5.32;3.47;;;12.90;99.90;;;;;;4940014;28;89300;-31
2022/11/09 00:42:02;;;;;;;3.83;3.53;;;12.90;99.90;;;;;;4939246;28;91044;-31
2022/11/09 00:44:27;;;;;;;3.60;2.92;;;12.90;99.90;;;;;;4940738;28;89747;-30
2022/11/09 00:46:53;;;;;;;8.70;4.00;;;12.90;99.90;;;;;;4939060;28;89408;-31
2022/11/09 00:49:18;;;;;;;6.30;3.22;;;13.00;99.90;;;;;;4939522;28;88966;-32
2022/11/09 00:51:44;;;;;;;4.43;3.90;;;13.00;99.90;;;;;;4939214;28;91258;-31
2022/11/09 00:54:09;;;;;;;6.50;3.63;;;13.00;99.90;;;;;;4939844;28;89702;-31
2022/11/09 00:56:35;;;;;;;5.85;3.97;;;13.00;99.90;;;;;;4940016;28;90521;-31
2022/11/09 00:59:01;;;;;;;5.45;3.53;;;13.00;99.90;;;;;;4946528;28;87572;-32
2022/11/09 01:01:26;;;;;;;5.75;3.60;;;13.10;99.90;;;;;;4939739;28;89013;-30
2022/11/09 01:03:52;;;;;;;6.78;3.60;;;13.10;99.90;;;;;;4939294;28;90045;-31
2022/11/09 01:06:21;;;;;;;5.53;4.13;;;13.10;99.90;;;;;;4939355;28;89552;-32
2022/11/09 01:08:47;;;;;;;5.57;3.63;;;13.10;99.90;;;;;;4939600;28;88563;-33
2022/11/09 01:11:13;;;;;;;5.80;3.65;;;13.20;99.90;;;;;;4938988;28;88856;-31
2022/11/09 01:13:39;;;;;;;4.45;3.25;;;13.10;99.90;;;;;;4939213;28;90173;-32
2022/11/09 01:16:08;;;;;;;4.07;2.75;;;13.20;99.90;;;;;;4939153;28;89346;-31
2022/11/09 01:18:34;;;;;;;4.03;3.22;;;13.20;99.90;;;;;;4947770;28;89043;-32
2022/11/09 01:21:01;;;;;;;7.22;4.05;;;13.20;99.90;;;;;;4938926;28;90127;-33
2022/11/09 01:23:27;;;;;;;4.63;3.60;;;13.20;99.90;;;;;;4939173;28;89240;-32
2022/11/09 01:26:00;;;;;;;5.28;3.03;;;13.20;99.90;;;;;;4931036;28;91407;-30
2022/11/09 01:28:26;;;;;;;4.68;3.65;;;13.20;99.90;;;;;;4935104;28;89243;-33
2022/11/09 01:30:52;;;;;;;6.40;4.28;;;13.20;99.90;;;;;;4939076;28;91384;-32
2022/11/09 01:33:18;;;;;;;6.68;4.07;;;13.20;99.90;;;;;;4939659;28;88822;-31
2022/11/09 01:35:44;;;;;;;6.22;4.05;;;13.10;99.90;;;;;;4939372;28;89785;-31
2022/11/09 01:38:10;;;;;;;5.65;3.38;;;13.10;99.90;;;;;;4938848;28;89418;-32
2022/11/09 01:40:37;;;;;;;6.82;4.35;;;13.10;99.90;;;;;;4939321;28;90194;-32
2022/11/09 01:43:15;;;;;;;6.60;3.97;;;13.10;99.90;;;;;;4939122;28;89275;-32
2022/11/09 01:45:44;;;;;;;6.87;4.83;;;13.10;99.90;;;;;;4938745;28;89381;-31
2022/11/09 01:48:17;;;;;;;8.75;3.40;;;13.10;99.90;;;;;;4942383;28;89798;-33
2022/11/09 01:50:49;;;;;;;3.58;3.28;;;13.10;99.90;;;;;;4942745;28;90213;-32
2022/11/09 01:53:28;;;;;;;8.60;4.47;;;13.10;99.90;;;;;;4941885;28;90106;-32
2022/11/09 01:55:57;;;;;;;9.98;3.97;;;13.30;99.90;;;;;;4942190;28;91179;-31
2022/11/09 01:58:37;;;;;;;7.75;2.83;;;13.30;99.90;;;;;;4942651;28;89691;-32
2022/11/09 02:01:09;;;;;;;5.85;3.55;;;13.20;99.90;;;;;;4941989;28;90074;-31
2022/11/09 02:03:40;;;;;;;6.32;3.55;;;13.20;99.90;;;;;;4941319;28;90503;-29
2022/11/09 02:06:10;;;;;;;6.55;3.00;;;13.20;99.90;;;;;;4941550;28;89858;-33
2022/11/09 02:08:36;;;;;;;5.85;3.05;;;13.10;99.90;;;;;;4942227;28;89734;-32
2022/11/09 02:11:08;;;;;;;4.75;3.72;;;13.10;99.90;;;;;;4941183;28;90728;-31
2022/11/09 02:13:36;;;;;;;7.35;3.40;;;13.10;99.90;;;;;;4942128;28;91648;-31
2022/11/09 02:16:02;;;;;;;5.93;3.53;;;13.00;99.90;;;;;;4941344;28;89273;-31
2022/11/09 02:18:30;;;;;;;4.40;3.67;;;13.00;99.90;;;;;;4948090;28;89631;-31
2022/11/09 02:20:57;;;;;;;6.18;3.47;;;13.00;99.90;;;;;;4945092;28;90132;-31
2022/11/09 02:23:24;;;;;;;9.40;3.22;;;13.00;99.90;;;;;;4941557;28;89736;-30
2022/11/09 02:25:55;;;;;;;9.82;3.28;;;12.90;99.90;;;;;;4944426;28;89372;-31
2022/11/09 02:28:21;;;;;;;10.00;3.97;;;12.90;99.90;;;;;;4937722;28;90317;-31
2022/11/09 02:30:50;;;;;;;10.18;4.03;;;12.90;99.90;;;;;;4941390;28;89227;-32
2022/11/09 02:33:16;;;;;;;5.13;3.30;;;12.80;99.90;;;;;;4942599;28;89901;-33
2022/11/09 02:35:42;;;;;;;3.53;3.20;;;12.80;99.90;;;;;;4940907;28;89606;-32
2022/11/09 02:38:12;;;;;;;4.97;3.88;;;12.80;99.90;;;;;;4942033;28;88238;-33
2022/11/09 02:40:40;;;;;;;6.00;4.00;;;12.90;99.90;;;;;;4941512;28;91781;-32
2022/11/09 02:43:07;;;;;;;4.55;3.65;;;12.90;99.90;;;;;;4941718;28;91955;-32
2022/11/09 02:45:33;;;;;;;3.20;2.90;;;12.90;99.90;;;;;;4942594;28;90598;-30
2022/11/09 02:47:59;;;;;;;11.65;3.25;;;12.90;99.90;;;;;;4941664;28;89332;-31
2022/11/09 02:50:25;;;;;;;7.82;3.45;;;12.80;99.90;;;;;;4941672;28;89936;-31
2022/11/09 02:52:50;;;;;;;5.93;3.92;;;12.90;99.90;;;;;;4940821;28;92418;-31
2022/11/09 02:55:16;;;;;;;4.35;2.70;;;12.80;99.90;;;;;;4952416;28;90478;-30
2022/11/09 02:57:42;;;;;;;4.72;3.53;;;12.80;99.90;;;;;;4942310;28;89487;-32
2022/11/09 03:00:08;;;;;;;4.78;2.95;;;12.80;99.90;;;;;;4940648;28;90918;-31
2022/11/09 03:02:35;;;;;;;5.20;3.05;;;12.80;99.90;;;;;;4941531;28;90097;-33
2022/11/09 03:05:00;;;;;;;4.38;3.25;;;12.80;99.90;;;;;;4941262;28;89472;-31
2022/11/09 03:07:26;;;;;;;6.38;3.42;;;12.70;99.90;;;;;;4941429;28;89215;-33
2022/11/09 03:09:52;;;;;;;4.38;3.42;;;12.80;99.90;;;;;;4941358;28;89422;-31
2022/11/09 03:12:28;;;;;;;6.82;3.30;;;12.80;99.90;;;;;;4940721;28;90285;-32
2022/11/09 03:14:55;;;;;;;6.68;3.28;;;12.90;99.90;;;;;;4941070;28;89809;-33
2022/11/09 03:17:20;;;;;;;7.80;3.30;;;12.90;99.90;;;;;;4941171;28;89881;-30
2022/11/09 03:19:46;;;;;;;5.18;3.22;;;12.90;99.90;;;;;;4941174;28;89856;-32
2022/11/09 03:22:12;;;;;;;8.95;3.63;;;12.90;99.90;;;;;;4941685;28;89737;-30
2022/11/09 03:24:37;;;;;;;11.27;3.55;;;12.80;99.90;;;;;;4941488;28;90006;-32
2022/11/09 03:27:03;;;;;;;2.92;2.30;;;12.80;99.90;;;;;;4926727;28;89671;-33
2022/11/09 03:29:28;;;;;;;8.50;3.65;;;12.80;99.90;;;;;;4941486;28;90621;-31
2022/11/09 03:31:54;;;;;;;7.22;3.00;;;12.80;99.90;;;;;;4940294;28;88626;-31
2022/11/09 03:34:20;;;;;;;12.27;3.53;;;12.70;99.90;;;;;;4941326;28;90390;-31
2022/11/09 03:36:45;;;;;;;5.75;2.90;;;12.70;99.90;;;;;;4940011;28;88697;-31
2022/11/09 03:39:11;;;;;;;8.32;3.65;;;12.70;99.90;;;;;;4938981;28;91039;-30
2022/11/09 03:41:36;;;;;;;4.13;2.70;;;12.70;99.90;;;;;;4940688;28;90168;-31
2022/11/09 03:44:02;;;;;;;8.40;3.63;;;12.70;99.90;;;;;;4940577;28;90222;-33
2022/11/09 03:46:28;;;;;;;4.20;2.58;;;12.60;99.90;;;;;;4940323;28;88335;-32
2022/11/09 03:48:53;;;;;;;3.90;3.13;;;12.60;99.90;;;;;;4939890;28;90219;-32
2022/11/09 03:51:19;;;;;;;10.07;3.90;;;12.60;99.90;;;;;;4940915;28;89836;-32
2022/11/09 03:53:44;;;;;;;8.10;3.38;;;12.60;99.90;;;;;;4940351;28;89840;-32
2022/11/09 03:56:10;;;;;;;7.10;3.58;;;12.50;99.90;;;;;;4940934;28;88642;-31
2022/11/09 03:58:35;;;;;;;5.32;3.92;;;12.50;99.90;;;;;;4940260;28;90024;-30
2022/11/09 04:01:01;;;;;;;8.85;3.13;;;12.50;99.90;;;;;;4940256;28;89522;-30
2022/11/09 04:03:26;;;;;;;12.02;3.38;;;12.50;99.90;;;;;;4940682;28;89646;-32
2022/11/09 04:05:52;;;;;;;7.15;3.95;;;12.40;99.90;;;;;;4940481;28;88674;-30
2022/11/09 04:08:18;;;;;;;3.55;3.10;;;12.40;99.90;;;;;;4940574;28;90478;-33
2022/11/09 04:10:44;;;;;;;6.28;3.63;;;12.30;99.90;;;;;;4939442;28;88850;-31
2022/11/09 04:13:10;;;;;;;7.78;3.88;;;12.30;99.90;;;;;;4940742;28;89256;-32
2022/11/09 04:15:35;;;;;;;9.90;3.67;;;12.30;99.90;;;;;;4940684;28;89559;-32
2022/11/09 04:18:02;;;;;;;8.50;3.35;;;12.30;99.90;;;;;;4939816;28;90047;-33
2022/11/09 04:20:29;;;;;;;5.72;3.90;;;12.40;99.90;;;;;;4940796;28;88802;-30
2022/11/09 04:22:59;;;;;;;6.07;2.67;;;12.50;99.90;;;;;;4926268;28;91040;-30
2022/11/09 04:25:26;;;;;;;8.95;3.58;;;12.50;99.90;;;;;;4940004;28;88761;-31
2022/11/09 04:27:55;;;;;;;6.15;3.42;;;12.50;99.90;;;;;;4939688;28;90594;-31
2022/11/09 04:30:21;;;;;;;8.18;2.97;;;12.50;99.90;;;;;;4939844;28;91005;-31
2022/11/09 04:32:47;;;;;;;5.10;3.10;;;12.60;99.90;;;;;;4940142;28;90013;-32
2022/11/09 04:35:13;;;;;;;6.85;3.85;;;12.60;99.90;;;;;;4940074;28;90434;-31
2022/11/09 04:37:38;;;;;;;7.43;3.30;;;12.60;99.90;;;;;;4940116;28;90587;-33
2022/11/09 04:40:04;;;;;;;8.95;3.88;;;12.70;99.90;;;;;;4940049;28;89753;-31
2022/11/09 04:42:30;;;;;;;6.93;3.03;;;12.70;99.90;;;;;;4940025;28;89205;-32
2022/11/09 04:44:56;;;;;;;6.22;3.80;;;12.90;99.90;;;;;;4940092;28;87945;-31
2022/11/09 04:47:21;;;;;;;6.68;3.47;;;12.80;99.90;;;;;;4939235;28;90381;-32
2022/11/09 04:49:47;;;;;;;7.75;3.88;;;12.80;99.90;;;;;;4940150;28;89400;-32
2022/11/09 04:52:13;;;;;;;6.78;3.05;;;12.80;99.90;;;;;;4939651;28;90058;-33
2022/11/09 04:54:38;;;;;;;5.90;3.50;;;12.80;99.90;;;;;;4930333;28;89588;-31
2022/11/09 04:57:04;;;;;;;9.68;3.92;;;12.80;99.90;;;;;;4935806;28;89032;-32
2022/11/09 04:59:29;;;;;;;10.00;4.07;;;12.80;99.90;;;;;;4933208;28;89828;-32
2022/11/09 05:01:55;;;;;;;4.57;2.78;;;12.70;99.90;;;;;;4934312;28;89604;-31
2022/11/09 05:04:20;;;;;;;11.32;3.75;;;12.70;99.90;;;;;;4939315;28;88364;-31
2022/11/09 05:06:46;;;;;;;4.40;3.30;;;12.70;99.90;;;;;;4939063;28;88770;-33
2022/11/09 05:09:11;;;;;;;11.85;3.47;;;12.70;99.90;;;;;;4939420;28;88788;-31
2022/11/09 05:11:37;;;;;;;6.60;3.88;;;12.70;99.90;;;;;;4939250;28;90016;-33
2022/11/09 05:14:03;;;;;;;4.57;2.70;;;12.60;99.90;;;;;;4939181;28;88775;-32
2022/11/09 05:16:29;;;;;;;6.68;3.63;;;12.60;99.90;;;;;;4938907;28;90251;-33
2022/11/09 05:18:55;;;;;;;4.38;3.15;;;12.60;99.90;;;;;;4938899;28;90561;-31
2022/11/09 05:21:20;;;;;;;8.05;3.58;;;12.60;99.90;;;;;;4939339;28;90276;-33
2022/11/09 05:23:58;;;;;;;4.20;3.10;;;12.60;99.90;;;;;;4943117;28;89017;-32
2022/11/09 05:26:29;;;;;;;6.85;3.72;;;12.60;99.90;;;;;;4943139;28;90244;-31
2022/11/09 05:28:56;;;;;;;6.28;3.13;;;12.70;99.90;;;;;;4942801;28;89798;-33
2022/11/09 05:31:22;;;;;;;6.63;3.42;;;12.60;99.90;;;;;;4942987;28;88432;-32
2022/11/09 05:33:50;;;;;;;12.13;3.47;;;12.60;99.90;;;;;;4942478;28;89139;-31
2022/11/09 05:36:16;;;;;;;4.77;3.60;;;12.70;99.90;;;;;;4941980;28;90419;-31
2022/11/09 05:38:42;;;;;;;6.10;3.83;;;12.70;99.90;;;;;;4942525;28;90117;-33
2022/11/09 05:41:07;;;;;;;5.10;3.55;;;12.60;99.90;;;;;;4941991;28;89577;-33
2022/11/09 05:43:33;;;;;;;6.40;3.40;;;12.60;99.90;;;;;;4942261;28;89257;-32
2022/11/09 05:45:58;;;;;;;10.43;3.80;;;12.60;99.90;;;;;;4941924;28;90396;-31
2022/11/09 05:48:24;;;;;;;4.57;3.13;;;12.60;99.90;;;;;;4942565;28;88407;-33
2022/11/09 05:50:49;;;;;;;3.88;2.83;;;12.60;99.90;;;;;;4941853;28;89430;-30
2022/11/09 05:53:15;;;;;;;7.65;3.15;;;12.60;99.90;;;;;;4942190;28;87895;-31
2022/11/09 05:55:41;;;;;;;5.85;3.03;;;12.60;99.90;;;;;;4942614;28;90035;-31
2022/11/09 05:58:07;;;;;;;9.68;4.07;;;12.60;99.90;;;;;;4942707;28;89843;-32
2022/11/09 06:00:33;;;;;;;7.65;3.17;;;12.60;99.90;;;;;;4942754;28;88744;-32
2022/11/09 06:03:02;;;;;;;5.50;3.35;;;12.50;99.90;;;;;;4942678;28;90043;-31
2022/11/09 06:05:28;;;;;;;4.40;3.00;;;12.50;99.90;;;;;;4942094;28;90241;-32
2022/11/09 06:07:54;;;;;;;11.52;3.92;;;12.50;99.90;;;;;;4941148;28;91215;-34
2022/11/09 06:10:19;;;;;;;5.90;3.67;;;12.50;99.90;;;;;;4942844;28;90445;-31
2022/11/09 06:12:49;;;;;;;6.75;2.92;;;12.40;99.90;;;;;;4941613;28;89469;-30
2022/11/09 06:15:15;;;;;;;3.13;2.83;;;12.40;99.90;;;;;;4940628;28;90356;-31
2022/11/09 06:17:41;;;;;;;5.63;3.17;;;12.40;99.90;;;;;;4942223;28;89654;-32
2022/11/09 06:20:06;;;;;;;7.32;2.80;;;12.40;99.90;;;;;;4941641;28;89472;-31
2022/11/09 06:22:32;;;;;;;9.80;3.45;;;12.50;99.90;;;;;;4942266;28;89263;-31
2022/11/09 06:24:58;;;;;;;6.88;3.45;;;12.40;99.90;;;;;;4942038;28;91557;-30
2022/11/09 06:27:23;;;;;;;4.85;3.05;;;12.30;99.90;;;;;;4941430;28;89772;-32
2022/11/09 06:29:49;;;;;;;14.90;3.40;;;12.30;99.90;;;;;;4941780;28;89788;-33
2022/11/09 06:32:14;;;;;;;11.35;2.95;;;12.30;99.90;;;;;;4941229;28;89911;-34
2022/11/09 06:34:42;;;;;;;3.08;2.47;;;12.20;99.90;;;;;;4942202;28;89048;-31
2022/11/09 06:37:07;;;;;;;4.65;2.80;;;12.20;99.90;;;;;;4941996;28;89364;-31
2022/11/09 06:39:33;;;;;;;5.78;2.45;;;12.20;99.90;;;;;;4941125;28;88964;-30
2022/11/09 06:41:59;;;;;;;3.20;2.95;;;12.20;99.90;;;;;;4941805;28;87965;-32
2022/11/09 06:44:24;;;;;;;4.68;3.67;;;12.20;99.90;;;;;;4941098;28;90548;-32
2022/11/09 06:46:50;;;;;;;3.70;3.00;;;12.10;99.90;;;;;;4941599;28;89731;-33
2022/11/09 06:49:16;;;;;;;17.73;3.55;;;12.10;99.90;;;;;;4941691;28;89489;-32
2022/11/09 06:51:41;;;;;;;10.20;3.65;;;12.10;99.90;;;;;;4940886;28;89719;-33
2022/11/09 06:54:07;;;;;;;6.90;3.05;;;12.00;99.90;;;;;;4942290;28;89978;-31
2022/11/09 06:56:32;;;;;;;10.13;3.40;;;12.00;99.90;;;;;;4941318;28;90578;-31
2022/11/09 06:58:58;;;;;;;5.95;3.22;;;12.00;99.90;;;;;;4941441;28;90239;-33
2022/11/09 07:01:27;;;;;;;4.25;3.33;;;12.00;99.90;;;;;;4941333;28;89671;-31
2022/11/09 07:03:52;;;;;;;12.23;3.50;;;12.10;99.90;;;;;;4940438;28;90288;-31
2022/11/09 07:06:18;;;;;;;10.30;3.45;;;12.00;99.90;;;;;;4941650;28;89801;-32
2022/11/09 07:08:43;;;;;;;9.63;3.75;;;12.10;99.90;;;;;;4940317;28;89400;-33
2022/11/09 07:11:12;;;;;;;7.78;3.65;;;12.20;99.90;;;;;;4942221;28;89399;-33
2022/11/09 07:13:38;;;;;;;9.82;2.80;;;12.10;99.90;;;;;;4941279;28;90147;-32
2022/11/09 07:16:05;;;;;;;8.07;3.28;;;12.20;99.90;;;;;;4940951;28;89557;-32
2022/11/09 07:18:31;;;;;;;6.88;3.97;;;12.10;99.90;;;;;;4940571;28;90963;-31
2022/11/09 07:20:57;;;;;;;13.77;3.58;;;12.10;99.90;;;;;;4941699;28;90066;-32
2022/11/09 07:23:22;;;;;;;10.88;3.38;;;12.10;99.90;;;;;;4940382;28;90252;-33
2022/11/09 07:25:48;;;;;;;7.10;3.50;;;12.10;99.90;;;;;;4940423;28;90104;-32
2022/11/09 07:28:14;;;;;;;10.02;3.38;;;12.10;99.90;;;;;;4940895;28;90003;-31
2022/11/09 07:30:40;;;;;;;7.43;4.00;;;12.10;99.90;;;;;;4940869;28;88528;-32
2022/11/09 07:33:14;;;;;;;8.98;3.35;;;12.10;99.90;;;;;;4940846;28;90247;-31
2022/11/09 07:35:41;;;;;;;4.47;3.42;;;12.20;99.90;;;;;;4940171;28;90113;-32
2022/11/09 07:38:06;;;;;;;6.65;3.58;;;12.10;99.90;;;;;;4940960;28;89758;-31
2022/11/09 07:40:32;;;;;;;6.00;3.05;;;12.20;99.90;;;;;;4941080;28;88991;-30
2022/11/09 07:43:02;;;;;;;11.55;4.10;;;12.20;99.90;;;;;;4939913;28;90322;-33
2022/11/09 07:45:29;;;;;;;14.48;3.17;;;12.20;99.90;;;;;;4939569;28;90626;-32
2022/11/09 07:47:56;;;;;;;9.82;3.83;;;12.20;99.90;;;;;;4940600;28;90305;-31
2022/11/09 07:50:22;;;;;;;9.68;4.13;;;12.20;99.90;;;;;;4941373;28;88167;-33
2022/11/09 07:52:47;;;;;;;9.85;3.92;;;12.20;99.90;;;;;;4940079;28;89790;-32
2022/11/09 07:55:13;;;;;;;9.05;4.00;;;12.30;99.90;;;;;;4940868;28;89312;-31
2022/11/09 07:57:38;;;;;;;8.95;3.83;;;12.30;99.90;;;;;;4940781;28;89466;-32
2022/11/09 08:00:04;;;;;;;6.75;3.78;;;12.30;99.90;;;;;;4940687;28;88758;-33
2022/11/09 08:02:30;;;;;;;9.68;4.10;;;12.40;99.90;;;;;;4940398;28;90241;-32
2022/11/09 08:04:56;;;;;;;5.22;3.42;;;12.40;99.90;;;;;;4940079;28;89926;-30
2022/11/09 08:07:22;;;;;;;6.47;4.25;;;12.50;99.90;;;;;;4940495;28;89694;-31
2022/11/09 08:09:48;;;;;;;7.30;2.60;;;12.40;99.90;;;;;;4939939;28;90272;-32
2022/11/09 08:12:13;;;;;;;8.25;3.78;;;12.40;99.90;;;;;;4940312;28;90389;-32
2022/11/09 08:14:39;;;;;;;8.45;4.55;;;12.50;99.90;;;;;;4939662;28;90528;-34
2022/11/09 08:17:05;;;;;;;8.27;3.45;;;12.50;99.90;;;;;;4940493;28;89427;-32
2022/11/09 08:19:30;;;;;;;8.23;3.67;;;12.60;99.90;;;;;;4940785;28;87698;-31
2022/11/09 08:21:56;;;;;;;15.02;4.22;;;12.60;99.90;;;;;;4939906;28;90272;-31
2022/11/09 08:24:22;;;;;;;7.18;3.53;;;12.60;99.90;;;;;;4939774;28;91054;-32
2022/11/09 08:26:48;;;;;;;9.48;3.75;;;12.60;99.90;;;;;;4939880;28;89372;-30
2022/11/09 08:29:14;;;;;;;6.13;3.78;;;12.70;99.90;;;;;;4940142;28;89772;-33
2022/11/09 08:31:40;;;;;;;10.10;3.70;;;12.80;99.90;;;;;;4940575;28;90262;-31
2022/11/09 08:34:11;;;;;;;12.10;4.03;;;12.90;99.90;;;;;;4939567;28;90933;-32
2022/11/09 08:36:36;;;;;;;13.50;3.80;;;12.80;99.90;;;;;;4937783;28;89511;-30
2022/11/09 08:39:02;;;;;;;12.73;3.97;;;12.80;99.90;;;;;;4940242;28;88470;-31
2022/11/09 08:41:28;;;;;;;15.57;3.95;;;13.00;99.90;;;;;;4939739;28;90314;-31
2022/11/09 08:43:53;;;;;;;8.90;3.13;;;13.00;99.90;;;;;;4939651;28;89224;-32
2022/11/09 08:46:19;;;;;;;11.25;4.38;;;13.00;99.90;;;;;;4940139;28;89572;-30
2022/11/09 08:48:45;;;;;;;7.22;3.35;;;13.00;99.90;;;;;;4939260;28;89288;-30
2022/11/09 08:51:10;;;;;;;15.45;3.95;;;13.10;99.90;;;;;;4940509;28;90739;-31
2022/11/09 08:53:36;;;;;;;7.07;3.30;;;13.10;99.90;;;;;;4939242;28;89776;-31
2022/11/09 08:56:05;;;;;;;8.57;3.88;;;13.10;99.90;;;;;;4939604;28;89579;-33
2022/11/09 08:58:31;;;;;;;6.72;3.53;;;13.10;99.90;;;;;;4942679;28;90500;-31
2022/11/09 09:00:56;;;;;;;13.60;4.72;;;13.10;99.90;;;;;;4943014;28;89958;-30
2022/11/09 09:03:22;;;;;;;8.02;4.25;;;13.20;99.90;;;;;;4943094;28;89716;-32
2022/11/09 09:05:47;;;;;;;12.45;5.53;;;13.20;99.90;;;;;;4942784;28;89308;-31
2022/11/09 09:08:14;;;;;;;11.57;4.40;;;13.20;99.90;;;;;;4973249;23;89736;-30
2022/11/09 09:10:41;;;;;;;6.43;4.03;;;13.30;99.90;;;;;;4942497;28;90318;-32
2022/11/09 09:13:06;;;;;;;16.83;4.43;;;13.20;99.90;;;;;;4942602;28;89657;-33
2022/11/09 09:15:32;;;;;;;6.72;3.22;;;13.20;99.90;;;;;;4942624;28;89409;-32
2022/11/09 09:18:00;;;;;;;8.90;4.00;;;13.30;99.90;;;;;;4943311;28;88902;-32
2022/11/09 09:20:25;;;;;;;9.48;4.60;;;13.30;99.90;;;;;;4942619;28;90363;-31
2022/11/09 09:22:51;;;;;;;9.77;3.95;;;13.40;99.90;;;;;;4941762;28;91511;-31
2022/11/09 09:25:16;;;;;;;11.38;3.97;;;13.40;99.90;;;;;;4943416;28;90403;-31
2022/11/09 09:27:43;;;;;;;7.55;4.15;;;13.40;99.90;;;;;;4942317;28;89707;-33
2022/11/09 09:30:09;;;;;;;9.88;3.38;;;13.40;99.90;;;;;;4943145;28;89450;-30
2022/11/09 09:32:35;;;;;;;8.32;4.05;;;13.50;99.90;;;;;;4942512;28;91645;-33
2022/11/09 09:35:01;;;;;;;10.55;3.40;;;13.50;99.90;;;;;;4942379;28;89577;-32
2022/11/09 09:37:26;;;;;;;5.68;2.80;;;13.50;99.90;;;;;;4943324;28;89411;-32
2022/11/09 09:39:52;;;;;;;7.10;3.47;;;13.60;99.90;;;;;;4942380;28;90135;-30
2022/11/09 09:42:30;;;;;;;5.35;3.33;;;13.50;99.90;;;;;;4942659;28;89786;-31
2022/11/09 09:45:01;;;;;;;6.15;3.40;;;13.60;99.90;;;;;;4942532;28;89574;-31
2022/11/09 09:47:47;;;;;;;10.48;3.50;;;13.60;99.90;;;;;;4942275;28;88087;-31
2022/11/09 09:50:25;;;;;;;13.88;4.05;;;13.70;99.90;;;;;;4942604;28;90771;-30
2022/11/09 09:53:01;;;;;;;10.65;4.30;;;13.60;99.90;;;;;;4941819;28;89749;-31
2022/11/09 09:55:40;;;;;;;9.32;4.20;;;13.70;99.90;;;;;;4941819;28;89841;-32
2022/11/09 09:58:17;;;;;;;10.77;4.75;;;13.70;99.90;;;;;;4941999;28;90038;-32
2022/11/09 10:00:44;;;;;;;9.07;3.47;;;13.80;99.90;;;;;;4941486;28;89644;-32
2022/11/09 10:03:18;;;;;;;5.75;4.18;;;13.80;99.90;;;;;;4942513;28;89679;-31
2022/11/09 10:05:50;;;;;;;8.60;4.60;;;13.90;99.90;;;;;;4941800;28;90205;-32
2022/11/09 10:08:27;;;;;;;16.15;4.75;;;13.90;99.90;;;;;;4941130;28;88346;-32
2022/11/09 10:11:18;;;;;;;9.25;4.32;;;14.00;99.90;;;;;;4941353;28;91292;-30
2022/11/09 10:13:47;;;;;;;16.33;4.45;;;14.00;99.90;;;;;;4942056;28;91070;-31
2022/11/09 10:16:13;;;;;;;8.63;3.33;;;14.00;99.90;;;;;;4928140;28;90566;-32
2022/11/09 10:19:13;;;;;;;7.07;3.85;;;14.00;99.90;;;;;;4941513;28;89074;-31
2022/11/09 10:21:59;;;;;;;9.32;3.78;;;13.90;99.90;;;;;;4851602;28;90610;-31
2022/11/09 10:24:30;;;;;;;10.20;4.15;;;13.90;99.90;;;;;;4935228;28;90162;-31
2022/11/09 10:26:57;;;;;;;8.52;3.67;;;13.90;99.90;;;;;;4941711;28;89486;-31
2022/11/09 10:29:31;;;;;;;10.00;3.57;;;13.90;99.90;;;;;;4941559;28;89308;-33
2022/11/09 10:32:21;;;;;;;10.43;4.22;;;13.90;99.90;;;;;;4941886;28;90271;-32
2022/11/09 10:35:01;;;;;;;10.63;3.67;;;14.00;99.90;;;;;;4941028;28;91343;-33
2022/11/09 10:37:35;;;;;;;10.90;3.28;;;14.00;99.90;;;;;;4942478;28;89602;-32
2022/11/09 10:40:07;;;;;;;10.00;3.80;;;14.10;99.90;;;;;;4941279;28;89854;-30
2022/11/09 10:42:33;;;;;;;8.10;4.28;;;14.10;99.90;;;;;;4941977;28;90748;-32
2022/11/09 10:45:06;;;;;;;8.52;3.97;;;14.20;99.90;;;;;;4941028;28;89743;-32
2022/11/09 10:47:47;;;;;;;7.55;5.30;;;14.20;99.90;;;;;;4941660;28;89076;-32
2022/11/09 10:50:33;;;;;;;8.25;3.70;;;14.30;99.90;;;;;;4941809;28;87992;-30
2022/11/09 10:53:12;;;;;;;9.93;4.05;;;14.30;99.90;;;;;;4940922;28;90334;-32
2022/11/09 10:55:49;;;;;;;8.02;5.25;;;14.30;99.90;;;;;;4940938;28;89959;-32
2022/11/09 10:58:42;;;;;;;8.00;4.05;;;14.40;99.90;;;;;;4940875;28;89604;-30
2022/11/09 11:01:17;;;;;;;6.93;4.22;;;14.40;99.90;;;;;;4927547;28;89970;-33
2022/11/09 11:03:44;;;;;;;9.15;3.95;;;14.40;99.90;;;;;;4940616;28;91409;-32
2022/11/09 11:06:22;;;;;;;10.57;3.88;;;14.50;99.90;;;;;;4940713;28;90573;-32
2022/11/09 11:09:11;;;;;;;6.05;3.60;;;14.50;99.90;;;;;;4941307;28;91027;-31
2022/11/09 11:11:38;;;;;;;8.35;3.35;;;14.50;99.90;;;;;;4930743;28;90184;-31
2022/11/09 11:14:29;;;;;;;15.13;4.60;;;14.40;99.90;;;;;;4941158;28;90584;-31
2022/11/09 11:16:55;;;;;;;11.30;3.42;;;14.40;99.90;;;;;;4940974;28;89905;-33
2022/11/09 11:19:34;;;;;;;8.25;3.55;;;14.40;99.90;;;;;;4940219;28;89810;-32
2022/11/09 11:22:13;;;;;;;8.65;3.88;;;14.40;99.90;;;;;;4941139;28;89429;-33
2022/11/09 11:24:54;;;;;;;8.98;3.65;;;14.40;99.90;;;;;;4941090;28;90687;-32
2022/11/09 11:27:34;;;;;;;7.53;3.38;;;14.50;99.90;;;;;;4941517;28;89825;-31
2022/11/09 11:30:21;;;;;;;4.97;3.42;;;14.40;99.90;;;;;;4928864;28;89573;-32
2022/11/09 11:32:47;;;;;;;8.73;3.28;;;14.50;99.90;;;;;;4940439;28;90219;-33
2022/11/09 11:35:29;;;;;;;4.70;2.97;;;14.50;99.90;;;;;;4940567;28;90148;-31
2022/11/09 11:38:19;;;;;;;14.52;3.35;;;14.40;99.90;;;;;;4941063;28;89985;-32
2022/11/09 11:40:47;;;;;;;12.75;3.70;;;14.40;99.90;;;;;;4941156;28;89503;-31
2022/11/09 11:43:16;;;;;;;;;;;14.40;99.90;;;;;;4941970;28;88247;-30
2022/11/09 11:46:11;;;;;;;8.75;3.72;;;14.40;99.90;;;;;;4942100;28;89555;-31
2022/11/09 11:48:59;;;;;;;8.43;4.13;;;14.30;99.90;;;;;;4937151;28;89851;-31
2022/11/09 11:51:42;;;;;;;9.30;3.90;;;14.20;99.90;;;;;;4940718;28;88212;-32
2022/11/09 11:54:45;;;;;;;7.82;3.22;;;14.20;99.90;;;;;;4927881;28;87943;-32
2022/11/09 11:57:47;;;;;;;6.32;2.85;;;14.10;99.90;;;;;;4939655;28;90823;-32
2022/11/09 12:00:15;;;;;;;6.53;3.22;;;14.20;99.90;;;;;;4939933;28;90444;-33
2022/11/09 12:03:00;;;;;;;;;;;14.20;99.90;;;;;;4941188;28;90129;-31
2022/11/09 12:05:53;;;;;;;8.00;3.55;;;14.20;99.90;;;;;;4941610;28;88570;-32
2022/11/09 12:08:50;;;;;;;9.75;3.45;;;14.20;99.90;;;;;;4940281;28;89408;-34
2022/11/09 12:11:34;;;;;;;5.73;3.53;;;14.20;99.90;;;;;;4928362;28;89689;-31
2022/11/09 12:14:25;;;;;;;10.30;3.25;;;14.30;99.90;;;;;;4939353;28;89377;-32
2022/11/09 12:17:06;;;;;;;9.35;3.92;;;14.30;99.90;;;;;;4938968;28;88848;-32
2022/11/09 12:19:51;;;;;;;7.30;2.65;;;14.30;99.90;;;;;;4940747;28;90130;-31
2022/11/09 12:22:48;;;;;;;6.72;3.08;;;14.20;99.90;;;;;;4939507;28;90447;-35
2022/11/09 12:25:14;;;;;;;11.45;3.83;;;14.20;99.90;;;;;;4939819;28;89845;-33
2022/11/09 12:27:59;;;;;;;9.85;3.78;;;14.20;99.90;;;;;;4939404;28;89683;-34
2022/11/09 12:30:44;;;;;;;9.23;3.42;;;14.10;99.90;;;;;;4940728;28;91137;-31
2022/11/09 12:33:40;;;;;;;9.82;2.90;;;14.10;99.90;;;;;;4939708;28;89672;-31
2022/11/09 12:36:11;;;;;;;9.32;3.40;;;14.10;99.90;;;;;;4939132;28;89148;-30
2022/11/09 12:38:44;;;;;;;9.00;2.97;;;14.10;99.90;;;;;;4939621;28;89354;-31
2022/11/09 12:41:15;;;;;;;4.25;2.60;;;14.20;99.90;;;;;;4940128;28;91152;-31
2022/11/09 12:43:56;;;;;;;5.85;2.88;;;14.30;99.90;;;;;;4939905;28;88804;-31
2022/11/09 12:46:29;;;;;;;9.15;4.72;;;14.50;99.90;;;;;;4939515;28;89976;-32
2022/11/09 12:49:00;;;;;;;7.15;3.28;;;14.80;99.90;;;;;;4939169;28;89837;-32
2022/11/09 12:51:27;;;;;;;9.27;3.75;;;14.90;99.90;;;;;;4940025;28;90491;-30
2022/11/09 12:53:54;;;;;;;11.60;3.53;;;15.10;99.90;;;;;;4938386;28;90567;-31
2022/11/09 12:56:35;;;;;;;4.68;2.47;;;15.10;99.90;;;;;;4940101;28;89592;-32